createdAt,value
2019-06-08T00:00:12.995Z,7.87
2019-06-08T00:02:41.253Z,8.23
2019-06-08T00:05:10.008Z,7.83
2019-06-08T00:07:38.919Z,7.70
2019-06-08T00:10:08.369Z,7.30
2019-06-08T00:12:36.956Z,8.27
2019-06-08T00:15:07.188Z,7.00
2019-06-08T00:17:38.936Z,7.97
2019-06-08T00:20:08.669Z,7.93
2019-06-08T00:22:37.518Z,8.37
2019-06-08T00:25:06.784Z,7.97
2019-06-08T00:27:35.435Z,8.20
2019-06-08T00:30:06.199Z,8.30
2019-06-08T00:32:34.897Z,8.57
2019-06-08T00:35:04.251Z,8.97
2019-06-08T00:37:32.912Z,8.70
2019-06-08T00:40:01.594Z,8.80
2019-06-08T00:42:30.225Z,8.07
2019-06-08T00:44:58.897Z,8.30
2019-06-08T00:47:42.493Z,7.93
2019-06-08T00:49:57.987Z,7.50
2019-06-08T00:52:26.637Z,7.90
2019-06-08T00:54:55.298Z,7.77
2019-06-08T00:57:24.062Z,7.60
2019-06-08T00:59:52.811Z,8.47
2019-06-08T01:02:22.581Z,7.87
2019-06-08T01:04:51.328Z,8.27
2019-06-08T01:07:20.007Z,8.53
2019-06-08T01:09:48.649Z,8.43
2019-06-08T01:12:18.625Z,8.73
2019-06-08T01:14:47.538Z,8.60
2019-06-08T01:17:16.198Z,8.53
2019-06-08T01:19:44.852Z,8.87
2019-06-08T01:22:13.515Z,9.00
2019-06-08T01:24:42.472Z,9.03
2019-06-08T01:27:11.361Z,8.97
2019-06-08T01:29:39.936Z,8.77
2019-06-08T01:32:08.591Z,9.53
2019-06-08T01:34:37.272Z,9.50
2019-06-08T01:37:05.870Z,10.00
2019-06-08T01:39:34.532Z,9.97
2019-06-08T01:42:03.187Z,11.33
2019-06-08T01:44:32.089Z,10.27
2019-06-08T01:47:00.793Z,10.83
2019-06-08T01:49:30.592Z,12.40
2019-06-08T01:51:59.330Z,11.30
2019-06-08T01:54:29.710Z,11.03
2019-06-08T01:56:58.409Z,12.80
2019-06-08T01:59:27.438Z,11.37
2019-06-08T02:01:56.057Z,12.10
2019-06-08T02:04:25.931Z,12.20
2019-06-08T02:06:54.685Z,12.23
2019-06-08T02:09:24.524Z,10.83
2019-06-08T02:11:53.323Z,10.87
2019-06-08T02:14:22.019Z,11.03
2019-06-08T02:16:50.763Z,11.97
2019-06-08T02:19:19.432Z,11.63
2019-06-08T02:21:48.093Z,11.93
2019-06-08T02:24:16.795Z,10.50
2019-06-08T02:26:45.459Z,10.73
2019-06-08T02:29:14.139Z,11.87
2019-06-08T02:31:42.783Z,12.13
2019-06-08T02:34:11.433Z,11.40
2019-06-08T02:36:40.816Z,9.53
2019-06-08T02:39:09.662Z,10.67
2019-06-08T02:41:39.949Z,10.63
2019-06-08T02:44:08.746Z,9.97
2019-06-08T02:46:40.087Z,9.40
2019-06-08T02:49:08.521Z,10.13
2019-06-08T02:51:38.253Z,9.20
2019-06-08T02:54:07.186Z,8.63
2019-06-08T02:56:37.345Z,8.50
2019-06-08T02:59:07.125Z,7.97
2019-06-08T03:01:38.148Z,9.87
2019-06-08T03:04:06.593Z,15.70
2019-06-08T03:06:39.462Z,8.87
2019-06-08T03:09:08.691Z,8.53
2019-06-08T03:11:39.004Z,8.10
2019-06-08T03:14:08.147Z,8.30
2019-06-08T03:16:40.389Z,7.87
2019-06-08T03:19:20.916Z,8.50
2019-06-08T03:21:38.856Z,11.53
2019-06-08T03:24:07.859Z,8.87
2019-06-08T03:26:39.050Z,9.77
2019-06-08T03:29:06.891Z,9.27
2019-06-08T03:31:42.429Z,9.27
2019-06-08T03:34:05.893Z,10.13
2019-06-08T03:36:39.012Z,10.57
2019-06-08T03:39:07.256Z,10.53
2019-06-08T03:41:36.265Z,10.07
2019-06-08T03:44:06.312Z,10.83
2019-06-08T03:46:36.386Z,10.53
2019-06-08T03:49:05.166Z,11.23
2019-06-08T03:51:36.054Z,11.43
2019-06-08T03:54:04.156Z,12.33
2019-06-08T03:56:32.837Z,12.53
2019-06-08T03:59:01.583Z,12.37
2019-06-08T04:01:30.293Z,12.43
2019-06-08T04:04:00.126Z,12.37
2019-06-08T04:06:28.835Z,11.30
2019-06-08T04:08:57.505Z,11.40
2019-06-08T04:11:26.090Z,11.40
2019-06-08T04:13:54.785Z,9.63
2019-06-08T04:16:23.450Z,9.33
2019-06-08T04:18:52.104Z,8.90
2019-06-08T04:21:20.697Z,8.50
2019-06-08T04:23:50.674Z,9.40
2019-06-08T04:26:19.676Z,9.27
2019-06-08T04:28:49.628Z,9.37
2019-06-08T04:31:18.304Z,8.97
2019-06-08T04:33:47.062Z,9.10
2019-06-08T04:36:15.717Z,9.10
2019-06-08T04:38:45.716Z,8.60
2019-06-08T04:41:14.730Z,8.90
2019-06-08T04:43:44.960Z,9.03
2019-06-08T04:46:13.769Z,10.47
2019-06-08T04:48:43.134Z,11.03
2019-06-08T04:51:12.833Z,8.40
2019-06-08T04:53:43.086Z,9.13
2019-06-08T04:56:11.919Z,8.20
2019-06-08T04:58:42.185Z,8.17
2019-06-08T05:01:10.951Z,8.63
2019-06-08T05:03:41.222Z,9.10
2019-06-08T05:06:09.859Z,8.23
2019-06-08T05:08:39.033Z,9.17
2019-06-08T05:11:07.870Z,7.37
2019-06-08T05:13:36.586Z,8.57
2019-06-08T05:16:05.241Z,9.07
2019-06-08T05:18:33.823Z,9.47
2019-06-08T05:21:02.416Z,9.20
2019-06-08T05:23:31.074Z,9.83
2019-06-08T05:25:59.748Z,10.63
2019-06-08T05:28:28.420Z,10.33
2019-06-08T05:30:57.229Z,14.40
2019-06-08T05:33:25.896Z,12.87
2019-06-08T05:35:54.553Z,10.77
2019-06-08T05:38:23.227Z,12.10
2019-06-08T05:40:51.878Z,10.97
2019-06-08T05:43:20.490Z,12.03
2019-06-08T05:45:49.980Z,10.90
2019-06-08T05:48:19.247Z,11.57
2019-06-08T05:51:02.693Z,10.37
2019-06-08T05:53:18.232Z,10.30
2019-06-08T05:55:47.993Z,17.67
2019-06-08T05:58:16.741Z,11.17
2019-06-08T06:00:46.275Z,10.73
2019-06-08T06:03:15.037Z,10.17
2019-06-08T06:05:44.346Z,10.10
2019-06-08T06:08:18.884Z,9.50
2019-06-08T06:10:44.772Z,11.53
2019-06-08T06:13:13.635Z,11.03
2019-06-08T06:15:42.970Z,10.30
2019-06-08T06:18:11.662Z,10.48
2019-06-08T06:20:41.006Z,9.23
2019-06-08T06:23:09.849Z,9.33
2019-06-08T06:25:38.502Z,9.57
2019-06-08T06:28:07.217Z,9.23
2019-06-08T06:30:35.959Z,9.60
2019-06-08T06:33:04.620Z,9.33
2019-06-08T06:35:33.281Z,9.07
2019-06-08T06:38:01.928Z,8.80
2019-06-08T06:40:30.702Z,8.97
2019-06-08T06:42:59.352Z,8.77
2019-06-08T06:45:28.022Z,9.53
2019-06-08T06:47:56.733Z,9.10
2019-06-08T06:50:25.417Z,9.43
2019-06-08T06:52:54.071Z,9.53
2019-06-08T06:55:25.368Z,9.00
2019-06-08T06:57:53.615Z,8.97
2019-06-08T07:00:32.551Z,11.17
2019-06-08T07:03:02.274Z,8.83
2019-06-08T07:05:30.930Z,9.00
2019-06-08T07:07:59.579Z,9.13
2019-06-08T07:10:28.175Z,8.70
2019-06-08T07:12:56.830Z,9.43
2019-06-08T07:15:29.522Z,8.67
2019-06-08T07:17:58.714Z,8.60
2019-06-08T07:20:27.437Z,8.10
2019-06-08T07:22:56.084Z,8.90
2019-06-08T07:25:24.759Z,8.43
2019-06-08T07:27:54.958Z,9.87
2019-06-08T07:30:23.894Z,10.33
2019-06-08T07:32:53.037Z,8.73
2019-06-08T07:35:21.692Z,9.73
2019-06-08T07:37:51.876Z,9.73
2019-06-08T07:40:20.644Z,9.57
2019-06-08T07:42:50.807Z,9.20
2019-06-08T07:45:19.681Z,9.67
2019-06-08T07:47:48.375Z,9.90
2019-06-08T07:50:17.260Z,9.63
2019-06-08T07:52:45.935Z,9.87
2019-06-08T07:55:14.618Z,9.30
2019-06-08T07:57:43.278Z,8.90
2019-06-08T08:00:12.185Z,7.67
2019-06-08T08:02:40.849Z,8.30
2019-06-08T08:05:09.805Z,8.30
2019-06-08T08:07:38.474Z,7.90
2019-06-08T08:10:07.907Z,7.60
2019-06-08T08:12:36.569Z,8.93
2019-06-08T08:15:08.458Z,8.50
2019-06-08T08:17:37.247Z,8.47
2019-06-08T08:20:07.503Z,9.80
2019-06-08T08:22:38.172Z,10.07
2019-06-08T08:25:08.290Z,12.03
2019-06-08T08:27:37.621Z,11.47
2019-06-08T08:30:08.417Z,10.27
2019-06-08T08:32:37.996Z,10.80
2019-06-08T08:35:08.741Z,10.90
2019-06-08T08:37:38.111Z,10.00
2019-06-08T08:40:07.878Z,9.83
2019-06-08T08:42:38.709Z,9.77
2019-06-08T08:45:08.780Z,9.73
2019-06-08T08:47:38.819Z,12.27
2019-06-08T08:50:10.351Z,9.43
2019-06-08T08:52:40.944Z,8.30
2019-06-08T08:55:09.722Z,8.07
2019-06-08T08:57:41.509Z,8.20
2019-06-08T09:00:09.630Z,7.87
2019-06-08T09:02:38.309Z,8.13
2019-06-08T09:05:08.587Z,9.03
2019-06-08T09:07:38.564Z,12.60
2019-06-08T09:10:08.526Z,12.97
2019-06-08T09:12:38.013Z,9.40
2019-06-08T09:15:08.652Z,9.20
2019-06-08T09:17:38.834Z,9.57
2019-06-08T09:20:09.379Z,8.07
2019-06-08T09:22:52.951Z,8.03
2019-06-08T09:25:09.035Z,7.07
2019-06-08T09:27:38.231Z,6.77
2019-06-08T09:30:08.423Z,6.50
2019-06-08T09:32:38.188Z,6.83
2019-06-08T09:35:09.384Z,5.97
2019-06-08T09:37:37.731Z,7.33
2019-06-08T09:40:07.532Z,5.90
2019-06-08T09:42:36.786Z,9.13
2019-06-08T09:45:09.484Z,6.50
2019-06-08T09:47:38.280Z,5.97
2019-06-08T09:50:11.690Z,11.37
2019-06-08T09:52:41.369Z,5.57
2019-06-08T09:55:11.004Z,6.40
2019-06-08T09:57:39.754Z,5.40
2019-06-08T10:00:17.935Z,10.37
2019-06-08T10:02:39.328Z,3.80
2019-06-08T10:05:08.225Z,6.17
2019-06-08T10:07:38.846Z,4.13
2019-06-08T10:10:09.805Z,3.25
2019-06-08T10:12:41.067Z,3.22
2019-06-08T10:15:09.485Z,5.40
2019-06-08T10:17:38.183Z,5.83
2019-06-08T10:20:09.805Z,3.65
2019-06-08T10:22:37.729Z,10.05
2019-06-08T10:25:11.284Z,4.65
2019-06-08T10:27:40.313Z,4.22
2019-06-08T10:30:10.443Z,4.87
2019-06-08T10:32:39.454Z,3.98
2019-06-08T10:35:10.605Z,8.03
2019-06-08T10:37:39.432Z,4.45
2019-06-08T10:40:10.115Z,2.90
2019-06-08T10:42:40.208Z,4.80
2019-06-08T10:45:14.672Z,4.07
2019-06-08T10:47:40.990Z,3.37
2019-06-08T10:50:15.156Z,4.17
2019-06-08T10:52:41.052Z,3.80
2019-06-08T10:55:12.234Z,4.60
2019-06-08T10:57:41.154Z,4.90
2019-06-08T11:00:20.145Z,4.17
2019-06-08T11:02:42.241Z,4.07
2019-06-08T11:05:13.903Z,5.60
2019-06-08T11:07:41.482Z,4.43
2019-06-08T11:10:12.405Z,4.03
2019-06-08T11:12:40.996Z,4.53
2019-06-08T11:15:11.754Z,4.47
2019-06-08T11:17:40.377Z,4.47
2019-06-08T11:20:13.076Z,4.00
2019-06-08T11:23:00.770Z,4.33
2019-06-08T11:25:29.007Z,4.40
2019-06-08T11:27:58.682Z,4.57
2019-06-08T11:30:30.559Z,3.90
2019-06-08T11:32:59.759Z,3.80
2019-06-08T11:35:28.703Z,4.13
2019-06-08T11:37:58.489Z,4.30
2019-06-08T11:40:28.008Z,5.37
2019-06-08T11:42:58.622Z,5.07
2019-06-08T11:45:27.231Z,5.43
2019-06-08T11:47:58.193Z,7.20
2019-06-08T11:50:41.577Z,4.20
2019-06-08T11:53:12.650Z,3.63
2019-06-08T11:55:39.093Z,3.93
2019-06-08T11:58:11.861Z,4.07
2019-06-08T12:00:48.881Z,4.50
2019-06-08T12:03:17.642Z,4.53
2019-06-08T12:05:47.771Z,3.60
2019-06-08T12:08:17.696Z,4.23
2019-06-08T12:10:49.090Z,3.90
2019-06-08T12:13:17.979Z,5.63
2019-06-08T12:15:48.797Z,4.43
2019-06-08T12:18:18.131Z,4.10
2019-06-08T12:20:48.821Z,3.93
2019-06-08T12:23:17.609Z,5.57
2019-06-08T12:25:46.276Z,4.13
2019-06-08T12:28:14.940Z,5.73
2019-06-08T12:30:43.720Z,4.03
2019-06-08T12:33:13.832Z,4.40
2019-06-08T12:35:42.529Z,3.80
2019-06-08T12:38:12.686Z,4.83
2019-06-08T12:40:41.780Z,4.67
2019-06-08T12:43:12.858Z,4.67
2019-06-08T12:45:41.013Z,4.50
2019-06-08T12:48:15.304Z,4.83
2019-06-08T12:50:40.055Z,4.30
2019-06-08T12:53:13.444Z,5.23
2019-06-08T12:55:39.147Z,5.27
2019-06-08T12:58:09.646Z,4.30
2019-06-08T13:00:38.216Z,4.27
2019-06-08T13:03:08.599Z,4.87
2019-06-08T13:05:37.977Z,4.60
2019-06-08T13:08:09.746Z,4.07
2019-06-08T13:10:38.150Z,4.97
2019-06-08T13:13:08.460Z,4.40
2019-06-08T13:15:38.439Z,4.17
2019-06-08T13:18:08.939Z,4.23
2019-06-08T13:20:38.872Z,4.57
2019-06-08T13:23:08.700Z,5.20
2019-06-08T13:25:43.472Z,4.80
2019-06-08T13:28:13.056Z,5.20
2019-06-08T13:30:39.119Z,6.23
2019-06-08T13:33:08.246Z,5.70
2019-06-08T13:35:39.566Z,5.00
2019-06-08T13:38:08.776Z,4.47
2019-06-08T13:40:40.181Z,5.10
2019-06-08T13:43:08.311Z,4.70
2019-06-08T13:45:39.379Z,4.73
2019-06-08T13:48:08.942Z,6.73
2019-06-08T13:50:37.910Z,4.53
2019-06-08T13:53:10.639Z,5.37
2019-06-08T13:55:49.535Z,4.57
2019-06-08T13:58:07.344Z,6.23
2019-06-08T14:00:38.561Z,5.57
2019-06-08T14:03:08.653Z,5.43
2019-06-08T14:05:38.813Z,4.43
2019-06-08T14:08:10.655Z,4.90
2019-06-08T14:10:39.966Z,4.47
2019-06-08T14:13:08.841Z,5.43
2019-06-08T14:15:38.025Z,4.63
2019-06-08T14:18:08.734Z,5.40
2019-06-08T14:20:38.538Z,6.57
2019-06-08T14:23:09.150Z,5.00
2019-06-08T14:25:47.889Z,4.90
2019-06-08T14:28:08.388Z,5.70
2019-06-08T14:30:37.684Z,4.80
2019-06-08T14:33:08.260Z,5.60
2019-06-08T14:35:36.989Z,5.63
2019-06-08T14:38:05.656Z,6.60
2019-06-08T14:40:34.440Z,5.47
2019-06-08T14:43:03.090Z,4.83
2019-06-08T14:45:31.755Z,8.33
2019-06-08T14:48:00.420Z,7.33
2019-06-08T14:50:31.012Z,8.83
2019-06-08T14:52:59.470Z,4.70
2019-06-08T14:55:32.102Z,5.80
2019-06-08T14:57:58.549Z,5.93
2019-06-08T15:00:27.780Z,4.90
2019-06-08T15:02:58.969Z,4.80
2019-06-08T15:05:30.718Z,5.57
2019-06-08T15:08:00.448Z,4.90
2019-06-08T15:10:29.741Z,4.47
2019-06-08T15:12:58.888Z,5.27
2019-06-08T15:15:30.426Z,5.30
2019-06-08T15:17:58.436Z,5.40
2019-06-08T15:20:28.619Z,4.87
2019-06-08T15:22:57.871Z,4.77
2019-06-08T15:25:29.502Z,3.83
2019-06-08T15:27:59.755Z,5.13
2019-06-08T15:30:30.628Z,5.47
2019-06-08T15:32:58.664Z,5.07
2019-06-08T15:35:27.578Z,4.87
2019-06-08T15:37:58.462Z,6.13
2019-06-08T15:40:27.725Z,5.17
2019-06-08T15:42:58.582Z,6.13
2019-06-08T15:45:29.423Z,5.40
2019-06-08T15:47:58.714Z,5.63
2019-06-08T15:50:28.460Z,6.00
2019-06-08T15:52:59.832Z,5.27
2019-06-08T15:55:31.400Z,5.77
2019-06-08T15:57:58.668Z,4.63
2019-06-08T16:00:29.585Z,7.77
2019-06-08T16:02:58.184Z,4.97
2019-06-08T16:05:27.755Z,5.40
2019-06-08T16:07:56.735Z,6.13
2019-06-08T16:10:26.326Z,4.90
2019-06-08T16:12:55.083Z,7.90
2019-06-08T16:15:24.881Z,5.37
2019-06-08T16:17:53.662Z,5.40
2019-06-08T16:20:22.368Z,5.80
2019-06-08T16:22:50.990Z,7.87
2019-06-08T16:25:19.685Z,5.83
2019-06-08T16:27:48.338Z,4.87
2019-06-08T16:30:17.141Z,6.23
2019-06-08T16:32:45.817Z,4.73
2019-06-08T16:35:14.545Z,7.10
2019-06-08T16:37:43.151Z,5.13
2019-06-08T16:40:12.205Z,5.97
2019-06-08T16:42:40.869Z,5.53
2019-06-08T16:45:10.212Z,5.37
2019-06-08T16:47:40.360Z,4.57
2019-06-08T16:50:23.432Z,6.23
2019-06-08T16:52:39.769Z,4.90
2019-06-08T16:55:08.736Z,5.50
2019-06-08T16:57:39.330Z,5.83
2019-06-08T17:02:39.372Z,6.83
2019-06-08T17:05:08.772Z,5.80
2019-06-08T17:07:37.809Z,6.13
2019-06-08T17:10:07.238Z,5.50
2019-06-08T17:12:37.004Z,7.53
2019-06-08T17:15:07.633Z,5.07
2019-06-08T17:17:36.620Z,5.77
2019-06-08T17:20:06.780Z,4.67
2019-06-08T17:22:36.824Z,5.90
2019-06-08T17:25:08.436Z,5.40
2019-06-08T17:27:37.290Z,6.07
2019-06-08T17:30:08.693Z,6.10
2019-06-08T17:32:38.483Z,5.23
2019-06-08T17:35:07.977Z,5.40
2019-06-08T17:37:38.025Z,5.27
2019-06-08T17:40:07.218Z,5.80
2019-06-08T17:42:35.873Z,5.20
2019-06-08T17:45:07.728Z,5.10
2019-06-08T17:49:08.927Z,5.50
2019-06-08T17:51:39.414Z,5.43
2019-06-08T17:54:09.923Z,5.00
2019-06-08T17:56:41.226Z,5.63
2019-06-08T17:59:11.932Z,9.00
2019-06-08T18:01:43.566Z,5.00
2019-06-08T18:04:14.018Z,5.07
2019-06-08T18:06:44.658Z,6.30
2019-06-08T18:09:17.349Z,5.40
2019-06-08T18:11:48.037Z,5.97
2019-06-08T18:14:18.787Z,5.90
2019-06-08T18:16:49.183Z,4.70
2019-06-08T18:19:28.528Z,5.83
2019-06-08T18:22:04.280Z,8.10
2019-06-08T18:24:31.254Z,7.33
2019-06-08T18:27:01.625Z,6.43
2019-06-08T18:29:32.197Z,9.30
2019-06-08T18:32:02.567Z,15.60
2019-06-08T18:34:32.926Z,5.47
2019-06-08T18:37:03.281Z,6.03
2019-06-08T18:39:35.013Z,8.37
2019-06-08T18:42:08.067Z,7.33
2019-06-08T18:44:41.011Z,4.90
2019-06-08T18:47:11.215Z,6.27
2019-06-08T18:49:43.081Z,6.77
2019-06-08T18:52:13.816Z,7.13
2019-06-08T18:54:44.293Z,7.37
2019-06-08T18:57:14.606Z,6.50
2019-06-08T18:59:48.656Z,8.67
2019-06-08T19:02:18.012Z,15.70
2019-06-08T19:04:50.393Z,14.93
2019-06-08T19:07:20.794Z,13.27
2019-06-08T19:09:51.812Z,15.50
2019-06-08T19:12:22.297Z,9.77
2019-06-08T19:14:52.733Z,7.07
2019-06-08T19:17:23.103Z,6.57
2019-06-08T19:19:53.470Z,7.30
2019-06-08T19:22:23.846Z,6.33
2019-06-08T19:24:54.309Z,8.43
2019-06-08T19:27:24.705Z,7.70
2019-06-08T19:29:55.013Z,8.80
2019-06-08T19:32:27.890Z,6.83
2019-06-08T19:34:58.067Z,9.03
2019-06-08T19:37:32.058Z,7.30
2019-06-08T19:40:00.733Z,8.57
2019-06-08T19:42:39.966Z,9.93
2019-06-08T19:45:05.600Z,10.20
2019-06-08T19:47:35.690Z,8.80
2019-06-08T19:50:07.900Z,8.87
2019-06-08T19:52:42.094Z,9.33
2019-06-08T19:55:10.643Z,10.57
2019-06-08T19:57:41.361Z,19.30
2019-06-08T20:00:13.558Z,7.53
2019-06-08T20:02:44.640Z,10.33
2019-06-08T20:05:17.451Z,9.13
2019-06-08T20:07:49.122Z,12.20
2019-06-08T20:10:19.618Z,5.80
2019-06-08T20:12:50.944Z,6.17
2019-06-08T20:15:21.401Z,12.80
2019-06-08T20:17:52.033Z,11.30
2019-06-08T20:20:22.424Z,8.43
2019-06-08T20:22:53.621Z,6.83
2019-06-08T20:25:24.224Z,13.73
2019-06-08T20:27:54.583Z,10.50
2019-06-08T20:30:24.962Z,12.10
2019-06-08T20:32:57.434Z,7.80
2019-06-08T20:35:28.005Z,13.83
2019-06-08T20:37:58.588Z,5.77
2019-06-08T20:40:29.125Z,5.50
2019-06-08T20:42:59.488Z,11.60
2019-06-08T20:45:30.096Z,8.90
2019-06-08T20:48:00.455Z,6.27
2019-06-08T20:50:30.891Z,10.50
2019-06-08T20:53:01.304Z,8.00
2019-06-08T20:55:31.677Z,7.07
2019-06-08T20:58:02.051Z,8.37
2019-06-08T21:00:32.405Z,6.40
2019-06-08T21:03:03.272Z,10.97
2019-06-08T21:05:33.786Z,11.53
2019-06-08T21:08:04.522Z,6.07
2019-06-08T21:10:37.603Z,9.67
2019-06-08T21:13:07.348Z,10.20
2019-06-08T21:15:38.401Z,7.40
2019-06-08T21:18:09.053Z,8.47
2019-06-08T21:20:39.348Z,8.60
2019-06-08T21:23:09.733Z,5.33
2019-06-08T21:25:40.098Z,8.60
2019-06-08T21:28:10.410Z,6.50
2019-06-08T21:30:40.792Z,7.13
2019-06-08T21:33:11.162Z,6.30
2019-06-08T21:35:41.495Z,12.80
2019-06-08T21:38:23.280Z,5.53
2019-06-08T21:40:43.959Z,11.00
2019-06-08T21:43:14.314Z,8.50
2019-06-08T21:45:44.838Z,12.40
2019-06-08T21:48:15.200Z,7.03
2019-06-08T21:50:49.004Z,9.50
2019-06-08T21:53:18.149Z,7.73
2019-06-08T21:55:49.569Z,6.73
2019-06-08T21:58:20.952Z,11.50
2019-06-08T22:00:52.672Z,6.77
2019-06-08T22:03:23.052Z,7.07
2019-06-08T22:05:53.901Z,5.70
2019-06-08T22:08:24.413Z,8.13
2019-06-08T22:10:54.789Z,6.50
2019-06-08T22:13:25.247Z,8.30
2019-06-08T22:15:58.271Z,9.60
2019-06-08T22:18:27.845Z,6.97
2019-06-08T22:20:59.792Z,7.57
2019-06-08T22:23:30.504Z,8.57
2019-06-08T22:26:01.265Z,6.53
2019-06-08T22:28:31.584Z,6.70
2019-06-08T22:31:01.949Z,5.20
2019-06-08T22:33:32.494Z,5.70
2019-06-08T22:36:02.931Z,7.40
2019-06-08T22:38:33.382Z,6.17
2019-06-08T22:41:03.750Z,5.80
2019-06-08T22:43:34.237Z,4.87
2019-06-08T22:46:04.598Z,5.33
2019-06-08T22:48:35.039Z,5.77
2019-06-08T22:51:07.823Z,5.23
2019-06-08T22:53:38.430Z,5.40
2019-06-08T22:56:08.930Z,5.83
2019-06-08T22:58:39.354Z,6.13
2019-06-08T23:01:11.546Z,5.63
2019-06-08T23:03:41.864Z,6.50
2019-06-08T23:06:12.248Z,6.00
2019-06-08T23:08:42.647Z,6.23
2019-06-08T23:11:13.024Z,6.10
2019-06-08T23:13:43.380Z,5.73
2019-06-08T23:16:13.761Z,5.73
2019-06-08T23:18:44.163Z,5.33
2019-06-08T23:21:14.542Z,5.77
2019-06-08T23:23:44.896Z,5.83
2019-06-08T23:26:15.279Z,5.57
2019-06-08T23:28:47.141Z,6.67
2019-06-08T23:31:24.855Z,4.87
2019-06-08T23:33:49.763Z,5.60
2019-06-08T23:36:46.015Z,5.50
2019-06-08T23:38:52.084Z,5.60
2019-06-08T23:41:22.497Z,6.10
2019-06-08T23:43:52.862Z,5.90
2019-06-08T23:46:23.278Z,5.13
2019-06-08T23:48:53.640Z,5.40
2019-06-08T23:51:24.050Z,5.73
2019-06-08T23:53:59.619Z,5.13
2019-06-08T23:56:29.696Z,5.43
2019-06-08T23:59:01.314Z,5.97
